createdAt,value
2023-05-16T00:01:35.610Z,11.50
2023-05-16T00:04:04.791Z,11.50
2023-05-16T00:06:33.147Z,11.50
2023-05-16T00:09:02.741Z,11.50
2023-05-16T00:11:30.780Z,11.50
2023-05-16T00:13:58.894Z,11.40
2023-05-16T00:16:29.494Z,11.40
2023-05-16T00:18:58.142Z,11.50
2023-05-16T00:21:26.209Z,11.50
2023-05-16T00:23:54.244Z,11.50
2023-05-16T00:26:23.663Z,11.60
2023-05-16T00:28:51.639Z,11.50
2023-05-16T00:31:19.755Z,11.60
2023-05-16T00:33:47.888Z,11.50
2023-05-16T00:36:15.946Z,11.50
2023-05-16T00:38:43.974Z,11.50
2023-05-16T00:41:12.116Z,11.50
2023-05-16T00:43:41.516Z,11.40
2023-05-16T00:46:09.565Z,11.30
2023-05-16T00:48:37.772Z,11.40
2023-05-16T00:51:09.325Z,11.30
2023-05-16T00:53:37.824Z,11.30
2023-05-16T00:56:07.481Z,11.30
2023-05-16T00:58:35.838Z,11.30
2023-05-16T01:01:05.683Z,11.30
2023-05-16T01:03:34.610Z,11.30
2023-05-16T01:06:02.780Z,11.20
2023-05-16T01:08:30.794Z,11.20
2023-05-16T01:11:06.037Z,11.40
2023-05-16T01:13:42.073Z,11.30
2023-05-16T01:16:23.413Z,11.30
2023-05-16T01:19:03.619Z,11.30
2023-05-16T01:21:43.662Z,11.20
2023-05-16T01:24:20.368Z,11.30
2023-05-16T01:26:51.307Z,11.30
2023-05-16T01:29:19.987Z,11.30
2023-05-16T01:31:48.047Z,11.30
2023-05-16T01:34:16.081Z,11.30
2023-05-16T01:36:49.817Z,11.40
2023-05-16T01:39:23.723Z,11.30
2023-05-16T01:42:02.288Z,11.30
2023-05-16T01:44:35.078Z,11.30
2023-05-16T01:47:07.225Z,11.20
2023-05-16T01:49:39.431Z,11.20
2023-05-16T01:52:12.513Z,11.20
2023-05-16T01:54:45.053Z,11.30
2023-05-16T01:57:14.766Z,11.30
2023-05-16T01:59:44.186Z,11.30
2023-05-16T02:02:12.315Z,11.10
2023-05-16T02:04:40.464Z,11.10
2023-05-16T02:07:08.857Z,11.10
2023-05-16T02:09:36.901Z,11.10
2023-05-16T02:12:05.583Z,11.10
2023-05-16T02:14:35.046Z,11.10
2023-05-16T02:17:03.175Z,11.10
2023-05-16T02:19:31.263Z,11.10
2023-05-16T02:21:59.247Z,11.10
2023-05-16T02:24:27.260Z,11.10
2023-05-16T02:26:55.338Z,11.10
2023-05-16T02:29:23.344Z,11.10
2023-05-16T02:31:52.813Z,11.20
2023-05-16T02:34:20.905Z,11.10
2023-05-16T02:36:49.024Z,11.20
2023-05-16T02:39:17.102Z,11.20
2023-05-16T02:41:45.123Z,11.20
2023-05-16T02:44:13.186Z,11.10
2023-05-16T02:46:41.281Z,11.10
2023-05-16T02:49:10.621Z,11.10
2023-05-16T02:51:38.639Z,11.20
2023-05-16T02:54:09.354Z,11.10
2023-05-16T02:56:37.761Z,11.10
2023-05-16T02:59:06.384Z,11.20
2023-05-16T03:01:34.687Z,11.10
2023-05-16T03:04:03.006Z,11.00
2023-05-16T03:06:32.501Z,11.10
2023-05-16T03:09:00.583Z,11.00
2023-05-16T03:11:29.131Z,11.10
2023-05-16T03:14:01.348Z,11.10
2023-05-16T03:16:29.948Z,11.20
2023-05-16T03:18:58.022Z,11.20
2023-05-16T03:21:26.341Z,11.20
2023-05-16T03:23:56.237Z,11.10
2023-05-16T03:26:24.565Z,11.20
2023-05-16T03:28:53.121Z,11.20
2023-05-16T03:31:21.300Z,11.20
2023-05-16T03:33:49.493Z,11.10
2023-05-16T03:36:17.560Z,11.10
2023-05-16T03:38:45.825Z,11.00
2023-05-16T03:41:15.448Z,11.00
2023-05-16T03:43:43.493Z,11.00
2023-05-16T03:46:11.555Z,11.00
2023-05-16T03:48:39.632Z,11.10
2023-05-16T03:51:07.662Z,11.20
2023-05-16T03:53:35.722Z,11.20
2023-05-16T03:56:03.988Z,11.20
2023-05-16T03:58:33.503Z,11.20
2023-05-16T04:01:01.703Z,11.30
2023-05-16T04:03:30.344Z,11.20
2023-05-16T04:05:59.232Z,11.10
2023-05-16T04:08:27.376Z,11.20
2023-05-16T04:10:55.909Z,11.10
2023-05-16T04:13:23.901Z,11.30
2023-05-16T04:15:53.335Z,11.10
2023-05-16T04:18:21.289Z,11.30
2023-05-16T04:20:50.211Z,11.40
2023-05-16T04:23:18.206Z,11.30
2023-05-16T04:25:46.222Z,11.30
2023-05-16T04:28:14.812Z,11.20
2023-05-16T04:30:42.886Z,11.30
2023-05-16T04:33:12.632Z,11.30
2023-05-16T04:35:40.908Z,11.50
2023-05-16T04:38:08.928Z,11.30
2023-05-16T04:40:36.912Z,11.30
2023-05-16T04:43:04.910Z,11.30
2023-05-16T04:45:33.515Z,11.40
2023-05-16T04:48:03.207Z,11.40
2023-05-16T04:50:32.599Z,11.50
2023-05-16T04:53:00.605Z,11.50
2023-05-16T04:55:28.664Z,11.50
2023-05-16T04:57:57.268Z,11.50
2023-05-16T05:00:25.898Z,11.50
2023-05-16T05:02:54.289Z,11.50
2023-05-16T05:05:22.583Z,11.50
2023-05-16T05:07:52.623Z,11.60
2023-05-16T05:10:20.780Z,11.70
2023-05-16T05:12:48.845Z,11.70
2023-05-16T05:15:16.888Z,11.70
2023-05-16T05:17:44.930Z,11.80
2023-05-16T05:20:14.099Z,11.60
2023-05-16T05:22:42.251Z,11.80
2023-05-16T05:25:11.876Z,11.70
2023-05-16T05:27:39.863Z,11.70
2023-05-16T05:30:08.888Z,11.80
2023-05-16T05:32:36.957Z,11.80
2023-05-16T05:35:05.563Z,11.80
2023-05-16T05:37:33.789Z,11.90
2023-05-16T05:40:01.924Z,11.90
2023-05-16T05:42:31.313Z,11.90
2023-05-16T05:44:59.282Z,11.90
2023-05-16T05:47:27.342Z,11.90
2023-05-16T05:49:55.364Z,11.90
2023-05-16T05:52:23.353Z,11.90
2023-05-16T05:54:51.348Z,11.90
2023-05-16T05:57:19.307Z,11.90
2023-05-16T05:59:48.612Z,11.90
2023-05-16T06:02:17.615Z,12.00
2023-05-16T06:04:45.715Z,12.00
2023-05-16T06:07:16.079Z,12.00
2023-05-16T06:09:44.331Z,12.10
2023-05-16T06:12:12.350Z,12.10
2023-05-16T06:14:40.470Z,12.10
2023-05-16T06:17:09.859Z,12.20
2023-05-16T06:19:37.901Z,12.20
2023-05-16T06:22:06.149Z,12.30
2023-05-16T06:24:34.145Z,12.30
2023-05-16T06:27:02.125Z,12.30
2023-05-16T06:29:30.148Z,12.30
2023-05-16T06:31:58.188Z,12.30
2023-05-16T06:34:28.552Z,12.30
2023-05-16T06:36:56.812Z,12.40
2023-05-16T06:39:24.805Z,12.40
2023-05-16T06:41:56.180Z,12.40
2023-05-16T06:44:24.964Z,12.50
2023-05-16T06:46:53.039Z,12.50
2023-05-16T06:49:21.290Z,12.30
2023-05-16T06:51:50.701Z,12.30
2023-05-16T06:54:18.724Z,12.40
2023-05-16T06:56:46.989Z,12.50
2023-05-16T06:59:14.993Z,12.50
2023-05-16T07:01:43.093Z,12.50
2023-05-16T07:04:11.230Z,12.50
2023-05-16T07:06:39.303Z,12.60
2023-05-16T07:09:08.682Z,12.50
2023-05-16T07:11:37.348Z,12.50
2023-05-16T07:14:05.365Z,12.50
2023-05-16T07:16:33.517Z,12.50
2023-05-16T07:19:01.619Z,12.50
2023-05-16T07:21:29.740Z,12.60
2023-05-16T07:23:58.090Z,12.60
2023-05-16T07:26:27.522Z,12.70
2023-05-16T07:28:55.815Z,12.80
2023-05-16T07:31:24.174Z,12.90
2023-05-16T07:33:52.335Z,12.90
2023-05-16T07:36:21.305Z,12.90
2023-05-16T07:38:49.406Z,12.90
2023-05-16T07:41:17.442Z,13.00
2023-05-16T07:43:46.852Z,12.90
2023-05-16T07:46:15.320Z,12.90
2023-05-16T07:48:43.806Z,12.90
2023-05-16T07:51:12.187Z,12.90
2023-05-16T07:53:40.193Z,12.90
2023-05-16T07:56:08.922Z,12.90
2023-05-16T07:58:37.040Z,12.90
2023-05-16T08:01:06.648Z,12.90
2023-05-16T08:03:36.273Z,12.80
2023-05-16T08:06:04.919Z,12.80
2023-05-16T08:08:33.314Z,12.80
2023-05-16T08:11:01.334Z,12.80
2023-05-16T08:13:29.298Z,12.80
2023-05-16T08:15:57.316Z,12.80
2023-05-16T08:18:26.733Z,12.80
2023-05-16T08:20:54.840Z,12.70
2023-05-16T08:23:23.010Z,12.60
2023-05-16T08:25:51.028Z,12.60
2023-05-16T08:28:19.069Z,12.60
2023-05-16T08:30:48.146Z,12.70
2023-05-16T08:33:16.365Z,12.70
2023-05-16T08:35:49.280Z,12.70
2023-05-16T08:38:17.300Z,12.80
2023-05-16T08:40:45.421Z,12.90
2023-05-16T08:43:14.000Z,12.90
2023-05-16T08:45:42.857Z,12.90
2023-05-16T08:48:12.527Z,12.90
2023-05-16T08:50:42.965Z,12.90
2023-05-16T08:53:15.830Z,12.90
2023-05-16T08:55:45.375Z,12.90
2023-05-16T08:58:14.865Z,12.90
2023-05-16T09:00:43.476Z,12.90
2023-05-16T09:03:11.632Z,12.90
2023-05-16T09:05:39.910Z,12.80
2023-05-16T09:08:08.210Z,12.80
2023-05-16T09:10:37.572Z,12.80
2023-05-16T09:13:05.756Z,12.90
2023-05-16T09:15:35.355Z,12.90
2023-05-16T09:18:04.791Z,12.90
2023-05-16T09:20:33.002Z,13.00
2023-05-16T09:23:01.715Z,12.90
2023-05-16T09:25:32.625Z,12.90
2023-05-16T09:28:03.807Z,12.80
2023-05-16T09:30:34.012Z,12.80
2023-05-16T09:33:02.875Z,12.80
2023-05-16T09:38:03.519Z,12.80
2023-05-16T09:40:31.778Z,12.70
2023-05-16T09:43:18.231Z,12.70
2023-05-16T09:45:50.431Z,12.60
2023-05-16T09:48:19.234Z,12.70
2023-05-16T09:50:52.914Z,12.70
2023-05-16T09:53:28.569Z,12.60
2023-05-16T09:56:04.266Z,12.70
2023-05-16T09:58:35.459Z,12.70
2023-05-16T10:01:03.980Z,12.70
2023-05-16T10:03:32.492Z,12.70
2023-05-16T10:06:01.818Z,12.70
2023-05-16T10:08:32.639Z,12.70
2023-05-16T10:11:00.724Z,12.70
2023-05-16T10:13:31.009Z,12.80
2023-05-16T10:16:01.606Z,12.80
2023-05-16T10:18:32.692Z,12.80
2023-05-16T10:21:08.339Z,12.90
2023-05-16T10:23:42.475Z,12.80
2023-05-16T10:26:14.308Z,12.90
2023-05-16T10:28:42.941Z,13.00
2023-05-16T10:31:12.721Z,13.00
2023-05-16T10:33:41.201Z,13.10
2023-05-16T10:36:09.898Z,13.10
2023-05-16T10:38:38.899Z,13.20
2023-05-16T10:41:08.246Z,13.20
2023-05-16T10:43:36.766Z,13.40
2023-05-16T10:46:07.885Z,13.50
2023-05-16T10:48:39.659Z,13.40
2023-05-16T10:51:36.938Z,13.50
2023-05-16T10:54:10.713Z,13.50
2023-05-16T10:56:39.336Z,13.30
2023-05-16T10:59:25.209Z,13.20
2023-05-16T11:01:55.244Z,13.10
2023-05-16T11:04:24.817Z,13.00
2023-05-16T11:06:54.824Z,12.90
2023-05-16T11:09:26.614Z,13.00
2023-05-16T11:12:00.651Z,12.90
2023-05-16T11:14:32.259Z,12.80
2023-05-16T11:17:07.987Z,12.90
2023-05-16T11:19:42.787Z,12.80
2023-05-16T11:22:25.343Z,12.70
2023-05-16T11:24:58.937Z,12.70
2023-05-16T11:27:29.619Z,12.80
2023-05-16T11:30:03.499Z,12.70
2023-05-16T11:32:34.543Z,12.70
2023-05-16T11:35:06.159Z,12.70
2023-05-16T11:37:34.373Z,12.70
2023-05-16T11:40:04.165Z,12.70
2023-05-16T11:42:34.028Z,12.70
2023-05-16T11:45:09.345Z,12.70
2023-05-16T11:47:39.162Z,12.70
2023-05-16T11:50:13.784Z,12.70
2023-05-16T11:52:44.547Z,12.70
2023-05-16T11:55:15.673Z,12.80
2023-05-16T11:57:47.662Z,12.80
2023-05-16T12:00:20.097Z,12.80
2023-05-16T12:02:48.764Z,12.80
2023-05-16T12:05:20.359Z,12.70
2023-05-16T12:07:49.309Z,12.70
2023-05-16T12:10:18.755Z,12.70
2023-05-16T12:12:49.271Z,12.70
2023-05-16T12:15:17.517Z,12.70
2023-05-16T12:17:46.761Z,12.80
2023-05-16T12:20:16.544Z,12.90
2023-05-16T12:22:47.171Z,12.80
2023-05-16T12:25:29.401Z,12.60
2023-05-16T12:28:00.605Z,12.60
2023-05-16T12:30:30.742Z,12.60
2023-05-16T12:32:59.264Z,12.50
2023-05-16T12:35:31.500Z,12.40
2023-05-16T12:38:01.296Z,12.30
2023-05-16T12:40:30.555Z,12.30
2023-05-16T12:43:00.273Z,12.20
2023-05-16T12:45:29.318Z,12.30
2023-05-16T12:47:57.489Z,12.30
2023-05-16T12:50:29.223Z,12.30
2023-05-16T12:53:02.022Z,12.40
2023-05-16T12:55:30.221Z,12.60
2023-05-16T12:57:58.881Z,12.50
2023-05-16T13:00:27.323Z,12.30
2023-05-16T13:02:55.821Z,12.30
2023-05-16T13:05:24.413Z,12.20
2023-05-16T13:07:52.781Z,12.20
2023-05-16T13:10:22.337Z,12.20
2023-05-16T13:12:50.423Z,12.20
2023-05-16T13:15:19.207Z,12.20
2023-05-16T13:17:48.588Z,12.20
2023-05-16T13:20:17.422Z,12.20
2023-05-16T13:22:46.690Z,12.20
2023-05-16T13:25:14.687Z,12.10
2023-05-16T13:27:44.093Z,12.20
2023-05-16T13:30:12.725Z,12.20
2023-05-16T13:32:41.289Z,12.20
2023-05-16T13:35:10.314Z,12.30
2023-05-16T13:37:38.746Z,12.20
2023-05-16T13:40:10.283Z,12.20
2023-05-16T13:42:38.883Z,12.10
2023-05-16T13:45:09.985Z,12.10
2023-05-16T13:47:38.126Z,11.80
2023-05-16T13:50:10.145Z,11.70
2023-05-16T13:52:39.114Z,11.60
2023-05-16T13:55:08.231Z,11.50
2023-05-16T13:57:36.616Z,11.50
2023-05-16T14:00:35.427Z,11.50
2023-05-16T14:03:02.073Z,11.50
2023-05-16T14:05:30.615Z,11.50
2023-05-16T14:07:58.609Z,11.70
2023-05-16T14:10:27.111Z,11.80
2023-05-16T14:12:56.824Z,11.90
2023-05-16T14:15:24.986Z,11.90
2023-05-16T14:17:53.117Z,11.80
2023-05-16T14:20:22.974Z,11.70
2023-05-16T14:22:50.994Z,11.70
2023-05-16T14:25:19.067Z,11.60
2023-05-16T14:27:47.082Z,11.50
2023-05-16T14:30:15.332Z,11.50
2023-05-16T14:32:43.474Z,11.60
2023-05-16T14:35:11.742Z,11.50
2023-05-16T14:37:41.157Z,11.50
2023-05-16T14:40:10.434Z,11.60
2023-05-16T14:42:38.655Z,11.60
2023-05-16T14:45:07.624Z,11.60
2023-05-16T14:47:35.706Z,11.60
2023-05-16T14:50:03.913Z,11.50
2023-05-16T14:52:31.990Z,11.60
2023-05-16T14:55:01.585Z,11.50
2023-05-16T14:57:29.720Z,11.70
2023-05-16T14:59:58.630Z,11.70
2023-05-16T15:02:27.766Z,11.80
2023-05-16T15:04:55.913Z,11.70
2023-05-16T15:07:24.312Z,11.80
2023-05-16T15:09:52.328Z,11.80
2023-05-16T15:12:21.775Z,11.90
2023-05-16T15:14:49.837Z,11.90
2023-05-16T15:17:17.828Z,11.90
2023-05-16T15:19:47.817Z,11.80
2023-05-16T15:22:16.047Z,11.90
2023-05-16T15:24:44.463Z,11.90
2023-05-16T15:27:12.567Z,12.00
2023-05-16T15:29:41.997Z,11.90
2023-05-16T15:32:11.359Z,12.00
2023-05-16T15:34:39.529Z,12.00
2023-05-16T15:37:07.613Z,12.00
2023-05-16T15:39:36.102Z,12.10
2023-05-16T15:42:10.590Z,12.10
2023-05-16T15:44:41.042Z,12.00
2023-05-16T15:47:09.640Z,12.00
2023-05-16T15:49:37.762Z,12.00
2023-05-16T15:52:06.587Z,12.00
2023-05-16T15:54:34.767Z,12.10
2023-05-16T15:57:02.783Z,12.10
2023-05-16T15:59:30.812Z,12.00
2023-05-16T16:02:04.155Z,12.10
2023-05-16T16:04:32.729Z,12.10
2023-05-16T16:07:00.911Z,12.10
2023-05-16T16:09:28.989Z,12.10
2023-05-16T16:11:57.260Z,12.10
2023-05-16T16:14:25.728Z,12.10
2023-05-16T16:16:53.798Z,12.10
2023-05-16T16:19:23.450Z,12.10
2023-05-16T16:21:51.592Z,12.20
2023-05-16T16:24:20.260Z,12.20
2023-05-16T16:26:48.346Z,12.10
2023-05-16T16:29:16.562Z,12.10
2023-05-16T16:31:44.681Z,12.20
2023-05-16T16:34:12.732Z,12.20
2023-05-16T16:36:42.172Z,12.10
2023-05-16T16:39:10.350Z,12.20
2023-05-16T16:41:38.552Z,12.10
2023-05-16T16:44:06.851Z,12.10
2023-05-16T16:46:35.159Z,12.10
2023-05-16T16:49:03.389Z,12.20
2023-05-16T16:51:32.238Z,12.20
2023-05-16T16:54:01.636Z,12.20
2023-05-16T16:56:30.430Z,12.20
2023-05-16T16:58:58.484Z,12.10
2023-05-16T17:01:29.556Z,12.10
2023-05-16T17:03:58.037Z,12.10
2023-05-16T17:06:26.435Z,12.10
2023-05-16T17:08:54.655Z,12.10
2023-05-16T17:11:24.854Z,12.10
2023-05-16T17:13:59.089Z,12.10
2023-05-16T17:16:28.746Z,12.10
2023-05-16T17:18:57.114Z,12.10
2023-05-16T17:21:25.172Z,12.10
2023-05-16T17:23:53.449Z,12.00
2023-05-16T17:26:22.125Z,12.00
2023-05-16T17:28:51.713Z,12.00
2023-05-16T17:31:20.355Z,12.00
2023-05-16T17:33:48.456Z,11.90
2023-05-16T17:36:16.676Z,11.90
2023-05-16T17:38:44.714Z,11.90
2023-05-16T17:41:12.722Z,12.00
2023-05-16T17:43:40.742Z,12.00
2023-05-16T17:46:10.132Z,12.00
2023-05-16T17:48:38.254Z,12.00
2023-05-16T17:51:06.735Z,12.00
2023-05-16T17:53:34.851Z,12.00
2023-05-16T17:56:03.004Z,12.00
2023-05-16T17:58:31.084Z,12.10
2023-05-16T18:00:59.141Z,12.10
2023-05-16T18:03:28.720Z,12.00
2023-05-16T18:05:57.163Z,12.00
2023-05-16T18:08:25.299Z,12.00
2023-05-16T18:10:53.523Z,12.00
2023-05-16T18:13:22.168Z,12.00
2023-05-16T18:15:50.432Z,12.00
2023-05-16T18:18:18.632Z,11.90
2023-05-16T18:20:48.427Z,11.90
2023-05-16T18:23:16.414Z,11.90
2023-05-16T18:25:44.582Z,12.00
2023-05-16T18:28:12.723Z,11.90
2023-05-16T18:30:41.068Z,11.90
2023-05-16T18:33:09.233Z,11.90
2023-05-16T18:35:37.434Z,11.80
2023-05-16T18:38:09.133Z,11.90
2023-05-16T18:40:47.830Z,11.90
2023-05-16T18:43:15.985Z,11.90
2023-05-16T18:45:44.049Z,11.90
2023-05-16T18:48:12.235Z,11.90
2023-05-16T18:50:40.752Z,12.00
2023-05-16T18:53:10.422Z,11.90
2023-05-16T18:55:38.461Z,11.90
2023-05-16T18:58:07.034Z,11.90
2023-05-16T19:00:35.458Z,11.90
2023-05-16T19:03:03.656Z,11.80
2023-05-16T19:05:32.217Z,11.80
2023-05-16T19:08:00.727Z,11.90
2023-05-16T19:10:30.520Z,11.90
2023-05-16T19:13:03.151Z,11.90
2023-05-16T19:15:31.204Z,11.90
2023-05-16T19:17:59.401Z,11.80
2023-05-16T19:20:28.059Z,11.80
2023-05-16T19:22:56.204Z,11.70
2023-05-16T19:25:24.220Z,11.60
2023-05-16T19:27:53.714Z,11.50
2023-05-16T19:30:21.777Z,11.50
2023-05-16T19:32:53.593Z,11.40
2023-05-16T19:35:22.020Z,11.60
2023-05-16T19:37:50.025Z,11.40
2023-05-16T19:40:18.054Z,11.40
2023-05-16T19:42:46.079Z,11.30
2023-05-16T19:45:15.671Z,11.20
2023-05-16T19:47:44.124Z,11.20
2023-05-16T19:50:12.388Z,11.00
2023-05-16T19:52:40.550Z,11.00
2023-05-16T19:55:10.599Z,11.10
2023-05-16T19:57:38.905Z,11.10
2023-05-16T20:00:08.403Z,11.10
2023-05-16T20:02:38.193Z,11.10
2023-05-16T20:05:07.068Z,11.30
2023-05-16T20:07:35.102Z,11.10
2023-05-16T20:10:03.227Z,11.00
2023-05-16T20:12:31.332Z,11.00
2023-05-16T20:14:59.483Z,11.00
2023-05-16T20:17:27.520Z,10.90
2023-05-16T20:19:57.126Z,10.90
2023-05-16T20:22:25.216Z,10.90
2023-05-16T20:24:56.013Z,10.90
2023-05-16T20:27:24.135Z,10.80
2023-05-16T20:29:54.271Z,10.80
2023-05-16T20:32:22.943Z,10.80
2023-05-16T20:34:51.102Z,10.80
2023-05-16T20:37:21.236Z,10.70
2023-05-16T20:39:55.863Z,10.70
2023-05-16T20:42:23.917Z,10.70
2023-05-16T20:44:54.706Z,10.60
2023-05-16T20:47:25.002Z,10.70
2023-05-16T20:49:56.556Z,10.60
2023-05-16T20:52:27.948Z,10.60
2023-05-16T20:54:58.181Z,10.50
2023-05-16T20:57:26.574Z,10.50
2023-05-16T20:59:56.763Z,10.50
2023-05-16T21:02:24.916Z,10.50
2023-05-16T21:04:53.091Z,10.40
2023-05-16T21:07:21.540Z,10.60
2023-05-16T21:09:50.947Z,10.50
2023-05-16T21:12:19.069Z,10.50
2023-05-16T21:14:49.370Z,10.50
2023-05-16T21:17:17.684Z,10.60
2023-05-16T21:19:45.767Z,10.50
2023-05-16T21:22:16.327Z,10.40
2023-05-16T21:24:44.465Z,10.40
2023-05-16T21:27:14.456Z,10.30
2023-05-16T21:29:42.458Z,10.40
2023-05-16T21:32:12.424Z,10.30
2023-05-16T21:34:41.429Z,10.40
2023-05-16T21:37:11.922Z,10.40
2023-05-16T21:39:39.981Z,10.40
2023-05-16T21:42:08.081Z,10.40
2023-05-16T21:44:37.483Z,10.30
2023-05-16T21:47:05.923Z,10.30
2023-05-16T21:49:35.339Z,10.40
2023-05-16T21:52:05.568Z,10.40
2023-05-16T21:54:35.098Z,10.40
2023-05-16T21:57:03.147Z,10.40
2023-05-16T21:59:31.162Z,10.50
2023-05-16T22:02:00.554Z,10.40
2023-05-16T22:04:28.608Z,10.30
2023-05-16T22:06:56.750Z,10.30
2023-05-16T22:09:24.824Z,10.20
2023-05-16T22:11:52.877Z,10.20
2023-05-16T22:14:20.898Z,10.20
2023-05-16T22:16:48.959Z,10.20
2023-05-16T22:19:18.399Z,10.10
2023-05-16T22:21:46.470Z,10.10
2023-05-16T22:24:14.514Z,10.10
2023-05-16T22:26:42.546Z,10.00
2023-05-16T22:29:10.607Z,10.10
2023-05-16T22:31:38.707Z,10.10
2023-05-16T22:34:06.794Z,10.00
2023-05-16T22:36:36.328Z,10.00
2023-05-16T22:39:04.548Z,10.10
2023-05-16T22:41:33.212Z,10.10
2023-05-16T22:44:01.609Z,10.00
2023-05-16T22:46:29.618Z,9.90
2023-05-16T22:48:57.793Z,9.90
2023-05-16T22:51:26.080Z,9.90
2023-05-16T22:53:55.638Z,9.90
2023-05-16T22:56:23.655Z,9.90
2023-05-16T22:58:51.918Z,9.80
2023-05-16T23:01:20.017Z,9.80
2023-05-16T23:03:48.208Z,9.70
2023-05-16T23:06:16.782Z,9.70
2023-05-16T23:08:44.898Z,9.60
2023-05-16T23:11:14.356Z,9.60
2023-05-16T23:13:42.463Z,9.60
2023-05-16T23:16:10.461Z,9.60
2023-05-16T23:18:38.881Z,9.50
2023-05-16T23:21:07.235Z,9.50
2023-05-16T23:23:35.331Z,9.50
2023-05-16T23:26:03.418Z,9.40
2023-05-16T23:28:32.924Z,9.40
2023-05-16T23:31:01.017Z,9.40
2023-05-16T23:33:29.387Z,9.30
2023-05-16T23:35:57.514Z,9.30
2023-05-16T23:38:27.381Z,9.30
2023-05-16T23:40:55.605Z,9.20
2023-05-16T23:43:23.631Z,9.10
2023-05-16T23:45:53.077Z,9.10
2023-05-16T23:48:21.410Z,9.00
2023-05-16T23:50:49.498Z,9.00
2023-05-16T23:53:17.672Z,8.90
2023-05-16T23:55:46.112Z,8.80
2023-05-16T23:58:14.172Z,8.60
